sensor_id;sensor_type;location;lat;lon;timestamp;pressure;altitude;pressure_sealevel;temperature;humidity
11343;BME280;5726;42.160;24.746;2022-08-02T00:02:16;99157.78;;;25.48;48.34
11343;BME280;5726;42.160;24.746;2022-08-02T00:04:42;99159.78;;;25.34;48.43
11343;BME280;5726;42.160;24.746;2022-08-02T00:07:07;99165.66;;;25.25;48.95
11343;BME280;5726;42.160;24.746;2022-08-02T00:09:33;99160.16;;;25.25;48.70
11343;BME280;5726;42.160;24.746;2022-08-02T00:11:58;99167.22;;;25.23;48.60
11343;BME280;5726;42.160;24.746;2022-08-02T00:14:24;99168.38;;;25.18;48.79
11343;BME280;5726;42.160;24.746;2022-08-02T00:16:49;99167.22;;;25.05;48.59
11343;BME280;5726;42.160;24.746;2022-08-02T00:19:15;99171.09;;;24.94;49.56
11343;BME280;5726;42.160;24.746;2022-08-02T00:21:40;99171.91;;;24.98;49.61
11343;BME280;5726;42.160;24.746;2022-08-02T00:24:06;99171.94;;;25.08;49.15
11343;BME280;5726;42.160;24.746;2022-08-02T00:26:31;99170.75;;;25.13;49.06
11343;BME280;5726;42.160;24.746;2022-08-02T00:28:57;99166.06;;;25.00;49.15
11343;BME280;5726;42.160;24.746;2022-08-02T00:31:22;99174.28;;;25.03;49.15
11343;BME280;5726;42.160;24.746;2022-08-02T00:33:48;99168.78;;;25.00;49.24
11343;BME280;5726;42.160;24.746;2022-08-02T00:36:13;99171.91;;;24.98;49.07
11343;BME280;5726;42.160;24.746;2022-08-02T00:38:39;99172.31;;;25.00;48.84
11343;BME280;5726;42.160;24.746;2022-08-02T00:41:10;99167.56;;;24.90;49.06
11343;BME280;5726;42.160;24.746;2022-08-02T00:43:36;99171.88;;;24.91;48.79
11343;BME280;5726;42.160;24.746;2022-08-02T00:46:02;99173.06;;;24.83;49.08
11343;BME280;5726;42.160;24.746;2022-08-02T00:48:27;99171.09;;;24.87;48.97
11343;BME280;5726;42.160;24.746;2022-08-02T00:50:52;99161.31;;;24.86;48.80
11343;BME280;5726;42.160;24.746;2022-08-02T00:53:18;99165.22;;;24.92;49.03
11343;BME280;5726;42.160;24.746;2022-08-02T00:55:44;99166.03;;;25.03;48.23
11343;BME280;5726;42.160;24.746;2022-08-02T00:58:09;99160.09;;;24.87;49.06
11343;BME280;5726;42.160;24.746;2022-08-02T01:00:34;99168.34;;;24.80;49.15
11343;BME280;5726;42.160;24.746;2022-08-02T01:03:00;99157.78;;;24.89;48.93
11343;BME280;5726;42.160;24.746;2022-08-02T01:05:25;99168.34;;;24.87;48.62
11343;BME280;5726;42.160;24.746;2022-08-02T01:07:51;99161.69;;;24.92;48.69
11343;BME280;5726;42.160;24.746;2022-08-02T01:10:16;99161.69;;;24.88;48.45
11343;BME280;5726;42.160;24.746;2022-08-02T01:12:42;99166.38;;;24.81;48.84
11343;BME280;5726;42.160;24.746;2022-08-02T01:15:09;99160.09;;;24.87;48.70
11343;BME280;5726;42.160;24.746;2022-08-02T01:17:48;99158.59;;;25.03;48.19
11343;BME280;5726;42.160;24.746;2022-08-02T01:26:00;99155.44;;;24.91;48.16
11343;BME280;5726;42.160;24.746;2022-08-02T01:28:38;99154.63;;;24.98;47.62
11343;BME280;5726;42.160;24.746;2022-08-02T01:36:37;99158.59;;;25.03;47.64
11343;BME280;5726;42.160;24.746;2022-08-02T01:39:03;99158.59;;;25.00;46.69
11343;BME280;5726;42.160;24.746;2022-08-02T01:41:31;99157.03;;;24.99;47.49
11343;BME280;5726;42.160;24.746;2022-08-02T01:43:59;99158.16;;;24.91;47.34
11343;BME280;5726;42.160;24.746;2022-08-02T01:46:26;99168.34;;;24.94;47.68
11343;BME280;5726;42.160;24.746;2022-08-02T01:48:55;99156.22;;;25.02;47.67
11343;BME280;5726;42.160;24.746;2022-08-02T01:51:22;99153.50;;;25.09;47.44
11343;BME280;5726;42.160;24.746;2022-08-02T01:54:08;99155.84;;;25.00;47.69
11343;BME280;5726;42.160;24.746;2022-08-02T01:56:36;99149.19;;;25.11;47.54
11343;BME280;5726;42.160;24.746;2022-08-02T01:59:04;99148.41;;;25.25;46.89
11343;BME280;5726;42.160;24.746;2022-08-02T02:01:35;99145.28;;;25.16;46.99
11343;BME280;5726;42.160;24.746;2022-08-02T02:04:01;99148.41;;;25.11;47.07
11343;BME280;5726;42.160;24.746;2022-08-02T02:06:27;99135.03;;;24.71;48.60
11343;BME280;5726;42.160;24.746;2022-08-02T02:08:54;99129.91;;;24.66;48.82
11343;BME280;5726;42.160;24.746;2022-08-02T02:11:21;99138.16;;;24.87;48.65
11343;BME280;5726;42.160;24.746;2022-08-02T02:13:47;99137.41;;;24.94;48.12
11343;BME280;5726;42.160;24.746;2022-08-02T02:16:14;99137.38;;;24.69;49.09
11343;BME280;5726;42.160;24.746;2022-08-02T02:18:41;99137.72;;;24.57;49.37
11343;BME280;5726;42.160;24.746;2022-08-02T02:21:08;99139.75;;;24.74;48.96
11343;BME280;5726;42.160;24.746;2022-08-02T02:23:34;99143.66;;;24.84;48.48
11343;BME280;5726;42.160;24.746;2022-08-02T02:25:59;99138.91;;;24.50;49.00
11343;BME280;5726;42.160;24.746;2022-08-02T02:28:29;99136.63;;;24.86;48.60
11343;BME280;5726;42.160;24.746;2022-08-02T02:31:16;99139.34;;;24.65;49.05
11343;BME280;5726;42.160;24.746;2022-08-02T02:33:49;99137.00;;;24.88;48.28
11343;BME280;5726;42.160;24.746;2022-08-02T02:36:19;99137.38;;;24.69;48.52
11343;BME280;5726;42.160;24.746;2022-08-02T02:38:46;99137.38;;;24.90;48.00
11343;BME280;5726;42.160;24.746;2022-08-02T02:41:13;99135.81;;;24.75;48.62
11343;BME280;5726;42.160;24.746;2022-08-02T02:43:42;99140.13;;;24.76;48.48
11343;BME280;5726;42.160;24.746;2022-08-02T02:46:09;99136.59;;;24.83;48.35
11343;BME280;5726;42.160;24.746;2022-08-02T02:48:36;99141.69;;;24.70;48.86
11343;BME280;5726;42.160;24.746;2022-08-02T02:51:05;99133.81;;;24.45;49.60
11343;BME280;5726;42.160;24.746;2022-08-02T02:53:34;99141.25;;;24.54;49.34
11343;BME280;5726;42.160;24.746;2022-08-02T02:56:00;99143.66;;;24.73;49.03
11343;BME280;5726;42.160;24.746;2022-08-02T02:58:26;99144.44;;;24.84;48.18
11343;BME280;5726;42.160;24.746;2022-08-02T03:00:52;99142.88;;;24.80;48.52
11343;BME280;5726;42.160;24.746;2022-08-02T03:03:37;99146.81;;;24.93;48.76
11343;BME280;5726;42.160;24.746;2022-08-02T03:06:03;99150.31;;;24.76;48.25
11343;BME280;5726;42.160;24.746;2022-08-02T03:08:28;99141.28;;;24.65;49.01
11343;BME280;5726;42.160;24.746;2022-08-02T03:10:54;99140.94;;;24.91;47.86
11343;BME280;5726;42.160;24.746;2022-08-02T03:13:20;99148.38;;;24.83;47.89
11343;BME280;5726;42.160;24.746;2022-08-02T03:15:46;99137.31;;;24.49;49.05
11343;BME280;5726;42.160;24.746;2022-08-02T03:18:32;99145.53;;;24.49;49.49
11343;BME280;5726;42.160;24.746;2022-08-02T03:21:03;99147.56;;;24.65;48.96
11343;BME280;5726;42.160;24.746;2022-08-02T03:23:29;99149.84;;;24.36;49.92
11343;BME280;5726;42.160;24.746;2022-08-02T03:25:55;99149.84;;;24.36;50.03
11343;BME280;5726;42.160;24.746;2022-08-02T03:28:21;99147.88;;;24.40;49.80
11343;BME280;5726;42.160;24.746;2022-08-02T03:30:46;99146.69;;;24.34;49.73
11343;BME280;5726;42.160;24.746;2022-08-02T03:33:12;99152.97;;;24.41;49.90
11343;BME280;5726;42.160;24.746;2022-08-02T03:35:39;99137.75;;;24.54;49.49
11343;BME280;5726;42.160;24.746;2022-08-02T03:38:06;99149.13;;;24.73;49.15
11343;BME280;5726;42.160;24.746;2022-08-02T03:40:32;99160.13;;;24.94;48.17
11343;BME280;5726;42.160;24.746;2022-08-02T03:42:58;99168.41;;;25.01;48.07
11343;BME280;5726;42.160;24.746;2022-08-02T03:45:26;99170.38;;;25.18;47.51
11343;BME280;5726;42.160;24.746;2022-08-02T03:47:52;99163.25;;;25.51;46.57
11343;BME280;5726;42.160;24.746;2022-08-02T03:50:18;99167.97;;;25.61;46.15
11343;BME280;5726;42.160;24.746;2022-08-02T03:52:47;99178.44;;;26.08;45.50
11343;BME280;5726;42.160;24.746;2022-08-02T03:55:13;99185.09;;;26.14;44.73
11343;BME280;5726;42.160;24.746;2022-08-02T03:57:42;99175.16;;;26.54;44.54
11343;BME280;5726;42.160;24.746;2022-08-02T04:00:10;99173.78;;;26.83;43.16
11343;BME280;5726;42.160;24.746;2022-08-02T04:02:37;99175.13;;;27.19;42.46
11343;BME280;5726;42.160;24.746;2022-08-02T04:05:03;99187.91;;;27.43;41.73
11343;BME280;5726;42.160;24.746;2022-08-02T04:07:28;99183.31;;;27.26;41.26
11343;BME280;5726;42.160;24.746;2022-08-02T04:09:54;99185.75;;;27.17;42.26
11343;BME280;5726;42.160;24.746;2022-08-02T04:12:19;99187.41;;;27.54;41.15
11343;BME280;5726;42.160;24.746;2022-08-02T04:14:45;99186.09;;;27.69;40.84
11343;BME280;5726;42.160;24.746;2022-08-02T04:17:11;99181.59;;;27.86;40.79
11343;BME280;5726;42.160;24.746;2022-08-02T04:20:00;99186.38;;;28.18;39.64
11343;BME280;5726;42.160;24.746;2022-08-02T04:22:34;99193.03;;;28.21;39.51
11343;BME280;5726;42.160;24.746;2022-08-02T04:25:04;99182.06;;;28.77;39.05
11343;BME280;5726;42.160;24.746;2022-08-02T04:27:31;99188.72;;;29.32;37.90
11343;BME280;5726;42.160;24.746;2022-08-02T04:29:57;99190.25;;;29.82;36.54
11343;BME280;5726;42.160;24.746;2022-08-02T04:32:24;99201.81;;;29.96;36.75
11343;BME280;5726;42.160;24.746;2022-08-02T04:34:49;99190.91;;;29.66;36.87
11343;BME280;5726;42.160;24.746;2022-08-02T04:37:15;99192.59;;;29.60;37.58
11343;BME280;5726;42.160;24.746;2022-08-02T04:39:41;99201.72;;;29.80;37.08
11343;BME280;5726;42.160;24.746;2022-08-02T04:42:06;99196.94;;;30.03;36.93
11343;BME280;5726;42.160;24.746;2022-08-02T04:44:32;99195.91;;;30.36;36.55
11343;BME280;5726;42.160;24.746;2022-08-02T04:46:59;99201.25;;;30.24;36.33
11343;BME280;5726;42.160;24.746;2022-08-02T04:49:30;99195.94;;;30.33;36.09
11343;BME280;5726;42.160;24.746;2022-08-02T04:51:55;99206.50;;;29.76;37.59
11343;BME280;5726;42.160;24.746;2022-08-02T04:54:21;99200.97;;;29.76;37.67
11343;BME280;5726;42.160;24.746;2022-08-02T04:56:47;99198.00;;;29.90;37.89
11343;BME280;5726;42.160;24.746;2022-08-02T04:59:12;99202.81;;;30.05;37.14
11343;BME280;5726;42.160;24.746;2022-08-02T05:01:38;99204.47;;;30.41;36.43
11343;BME280;5726;42.160;24.746;2022-08-02T05:04:06;99204.66;;;30.70;35.48
11343;BME280;5726;42.160;24.746;2022-08-02T05:06:31;99203.28;;;30.78;35.40
11343;BME280;5726;42.160;24.746;2022-08-02T05:08:57;99202.84;;;30.63;35.12
11343;BME280;5726;42.160;24.746;2022-08-02T05:11:23;99206.13;;;30.74;35.16
11343;BME280;5726;42.160;24.746;2022-08-02T05:13:50;99204.56;;;30.38;35.66
11343;BME280;5726;42.160;24.746;2022-08-02T05:16:16;99215.38;;;30.10;36.19
11343;BME280;5726;42.160;24.746;2022-08-02T05:18:41;99213.94;;;29.79;36.98
11343;BME280;5726;42.160;24.746;2022-08-02T05:21:07;99208.06;;;29.77;37.28
11343;BME280;5726;42.160;24.746;2022-08-02T05:23:32;99214.28;;;29.62;37.36
11343;BME280;5726;42.160;24.746;2022-08-02T05:25:57;99211.94;;;29.83;36.82
11343;BME280;5726;42.160;24.746;2022-08-02T05:28:23;99216.47;;;30.35;35.88
11343;BME280;5726;42.160;24.746;2022-08-02T05:30:49;99209.88;;;30.48;35.24
11343;BME280;5726;42.160;24.746;2022-08-02T05:33:15;99210.09;;;30.38;35.66
11343;BME280;5726;42.160;24.746;2022-08-02T05:35:41;99211.94;;;30.99;34.90
11343;BME280;5726;42.160;24.746;2022-08-02T05:38:06;99213.97;;;31.46;33.65
11343;BME280;5726;42.160;24.746;2022-08-02T05:40:32;99213.84;;;31.18;33.36
11343;BME280;5726;42.160;24.746;2022-08-02T05:42:57;99213.69;;;31.25;33.84
11343;BME280;5726;42.160;24.746;2022-08-02T05:45:22;99216.09;;;31.07;33.55
11343;BME280;5726;42.160;24.746;2022-08-02T05:47:48;99208.81;;;30.97;33.58
11343;BME280;5726;42.160;24.746;2022-08-02T05:50:13;99217.53;;;30.95;33.15
11343;BME280;5726;42.160;24.746;2022-08-02T05:52:51;99207.41;;;30.89;34.00
11343;BME280;5726;42.160;24.746;2022-08-02T05:55:26;99215.25;;;31.26;32.44
11343;BME280;5726;42.160;24.746;2022-08-02T06:00:30;99226.78;;;30.89;32.78
11343;BME280;5726;42.160;24.746;2022-08-02T06:05:58;99224.00;;;30.35;32.91
11343;BME280;5726;42.160;24.746;2022-08-02T06:08:33;99226.38;;;30.71;32.75
11343;BME280;5726;42.160;24.746;2022-08-02T06:11:04;99232.00;;;31.03;31.54
11343;BME280;5726;42.160;24.746;2022-08-02T06:13:31;99234.50;;;31.48;31.20
11343;BME280;5726;42.160;24.746;2022-08-02T06:15:56;99230.00;;;31.70;31.02
11343;BME280;5726;42.160;24.746;2022-08-02T06:18:26;99232.78;;;31.54;30.11
11343;BME280;5726;42.160;24.746;2022-08-02T06:20:56;99234.47;;;31.17;31.31
11343;BME280;5726;42.160;24.746;2022-08-02T06:23:22;99237.00;;;31.27;31.04
11343;BME280;5726;42.160;24.746;2022-08-02T06:25:52;99247.00;;;31.05;31.63
11343;BME280;5726;42.160;24.746;2022-08-02T06:28:18;99246.66;;;30.84;31.98
11343;BME280;5726;42.160;24.746;2022-08-02T06:30:44;99238.94;;;30.95;31.69
11343;BME280;5726;42.160;24.746;2022-08-02T06:33:09;99243.75;;;31.26;31.38
11343;BME280;5726;42.160;24.746;2022-08-02T06:35:44;99245.16;;;31.50;31.64
11343;BME280;5726;42.160;24.746;2022-08-02T06:38:17;99244.91;;;31.76;31.33
11343;BME280;5726;42.160;24.746;2022-08-02T06:43:33;99249.13;;;31.96;31.05
11343;BME280;5726;42.160;24.746;2022-08-02T06:46:02;99245.41;;;32.03;30.91
11343;BME280;5726;42.160;24.746;2022-08-02T06:48:29;99243.53;;;31.52;31.80
11343;BME280;5726;42.160;24.746;2022-08-02T06:50:55;99239.69;;;31.62;31.37
11343;BME280;5726;42.160;24.746;2022-08-02T06:53:20;99239.50;;;31.38;31.73
11343;BME280;5726;42.160;24.746;2022-08-02T06:55:46;99229.97;;;31.23;31.82
11343;BME280;5726;42.160;24.746;2022-08-02T06:58:12;99242.94;;;31.10;32.45
11343;BME280;5726;42.160;24.746;2022-08-02T07:00:39;99239.44;;;30.90;32.26
11343;BME280;5726;42.160;24.746;2022-08-02T07:03:04;99236.31;;;30.88;32.75
11343;BME280;5726;42.160;24.746;2022-08-02T07:05:30;99234.16;;;30.95;32.67
11343;BME280;5726;42.160;24.746;2022-08-02T07:07:56;99238.59;;;30.93;32.96
11343;BME280;5726;42.160;24.746;2022-08-02T07:10:21;99244.22;;;31.40;32.72
11343;BME280;5726;42.160;24.746;2022-08-02T07:12:47;99251.38;;;31.70;31.92
11343;BME280;5726;42.160;24.746;2022-08-02T07:15:12;99240.19;;;31.89;30.89
11343;BME280;5726;42.160;24.746;2022-08-02T07:17:38;99240.31;;;32.01;30.85
11343;BME280;5726;42.160;24.746;2022-08-02T07:20:04;99236.22;;;31.74;31.24
11343;BME280;5726;42.160;24.746;2022-08-02T07:22:30;99232.13;;;31.79;31.23
11343;BME280;5726;42.160;24.746;2022-08-02T07:24:57;99240.00;;;32.12;31.59
11343;BME280;5726;42.160;24.746;2022-08-02T07:27:24;99236.75;;;31.85;31.06
11343;BME280;5726;42.160;24.746;2022-08-02T07:29:50;99240.16;;;31.92;31.08
11343;BME280;5726;42.160;24.746;2022-08-02T07:32:20;99230.94;;;31.95;31.02
11343;BME280;5726;42.160;24.746;2022-08-02T07:34:46;99236.50;;;32.24;30.97
11343;BME280;5726;42.160;24.746;2022-08-02T07:37:12;99238.13;;;32.09;30.68
11343;BME280;5726;42.160;24.746;2022-08-02T07:39:38;99232.16;;;31.94;30.90
11343;BME280;5726;42.160;24.746;2022-08-02T07:42:04;99236.50;;;32.24;30.78
11343;BME280;5726;42.160;24.746;2022-08-02T07:44:29;99224.31;;;32.34;30.34
11343;BME280;5726;42.160;24.746;2022-08-02T07:47:00;99233.38;;;32.22;31.11
11343;BME280;5726;42.160;24.746;2022-08-02T07:49:26;99227.63;;;32.57;30.53
11343;BME280;5726;42.160;24.746;2022-08-02T07:51:51;99237.38;;;33.02;29.58
11343;BME280;5726;42.160;24.746;2022-08-02T07:54:17;99232.50;;;33.06;29.33
11343;BME280;5726;42.160;24.746;2022-08-02T07:56:42;99232.84;;;32.95;29.03
11343;BME280;5726;42.160;24.746;2022-08-02T07:59:08;99234.75;;;32.58;29.60
11343;BME280;5726;42.160;24.746;2022-08-02T08:01:35;99230.41;;;32.57;29.39
11343;BME280;5726;42.160;24.746;2022-08-02T08:04:03;99239.22;;;32.39;29.08
11343;BME280;5726;42.160;24.746;2022-08-02T08:06:29;99235.78;;;32.36;29.92
11343;BME280;5726;42.160;24.746;2022-08-02T08:08:55;99239.66;;;32.66;30.63
11343;BME280;5726;42.160;24.746;2022-08-02T08:11:21;99237.34;;;32.77;29.57
11343;BME280;5726;42.160;24.746;2022-08-02T08:13:46;99238.09;;;32.65;29.50
11343;BME280;5726;42.160;24.746;2022-08-02T08:16:12;99234.66;;;32.61;29.44
11343;BME280;5726;42.160;24.746;2022-08-02T08:18:37;99238.81;;;32.82;28.83
11343;BME280;5726;42.160;24.746;2022-08-02T08:21:03;99236.22;;;32.75;28.54
11343;BME280;5726;42.160;24.746;2022-08-02T08:23:29;99243.31;;;33.04;29.12
11343;BME280;5726;42.160;24.746;2022-08-02T08:25:54;99246.53;;;33.39;27.93
11343;BME280;5726;42.160;24.746;2022-08-02T08:28:20;99241.75;;;33.28;27.84
11343;BME280;5726;42.160;24.746;2022-08-02T08:30:45;99240.03;;;33.67;27.84
11343;BME280;5726;42.160;24.746;2022-08-02T08:33:12;99236.84;;;33.56;27.51
11343;BME280;5726;42.160;24.746;2022-08-02T08:35:37;99243.06;;;33.11;28.75
11343;BME280;5726;42.160;24.746;2022-08-02T08:38:03;99246.41;;;33.18;29.39
11343;BME280;5726;42.160;24.746;2022-08-02T08:40:28;99240.41;;;33.57;28.90
11343;BME280;5726;42.160;24.746;2022-08-02T08:42:54;99235.63;;;33.91;27.74
11343;BME280;5726;42.160;24.746;2022-08-02T08:45:19;99233.06;;;33.50;27.47
11343;BME280;5726;42.160;24.746;2022-08-02T08:47:51;99238.06;;;33.55;28.03
11343;BME280;5726;42.160;24.746;2022-08-02T08:50:23;99242.00;;;33.79;28.52
11343;BME280;5726;42.160;24.746;2022-08-02T08:52:53;99238.88;;;33.89;27.81
11343;BME280;5726;42.160;24.746;2022-08-02T08:55:22;99230.44;;;33.93;27.86
11343;BME280;5726;42.160;24.746;2022-08-02T08:57:52;99230.50;;;33.56;28.86
11343;BME280;5726;42.160;24.746;2022-08-02T09:00:18;99244.72;;;33.33;27.80
11343;BME280;5726;42.160;24.746;2022-08-02T09:02:44;99231.56;;;32.84;28.15
11343;BME280;5726;42.160;24.746;2022-08-02T09:05:12;99236.13;;;32.78;28.52
11343;BME280;5726;42.160;24.746;2022-08-02T09:07:38;99231.81;;;33.02;28.52
11343;BME280;5726;42.160;24.746;2022-08-02T09:10:32;99237.63;;;33.20;28.25
11343;BME280;5726;42.160;24.746;2022-08-02T09:13:20;99238.06;;;33.06;28.02
11343;BME280;5726;42.160;24.746;2022-08-02T09:15:57;99231.72;;;33.30;27.53
11343;BME280;5726;42.160;24.746;2022-08-02T09:21:03;99228.91;;;33.67;28.38
11343;BME280;5726;42.160;24.746;2022-08-02T09:23:35;99232.72;;;33.61;28.24
11343;BME280;5726;42.160;24.746;2022-08-02T09:26:23;99221.28;;;33.46;28.38
11343;BME280;5726;42.160;24.746;2022-08-02T09:28:50;99215.25;;;33.35;28.65
11343;BME280;5726;42.160;24.746;2022-08-02T09:31:17;99218.50;;;33.22;28.89
11343;BME280;5726;42.160;24.746;2022-08-02T09:33:48;99203.81;;;33.34;29.06
11343;BME280;5726;42.160;24.746;2022-08-02T09:36:15;99206.38;;;33.53;28.14
11343;BME280;5726;42.160;24.746;2022-08-02T09:38:57;99213.56;;;33.75;27.80
11343;BME280;5726;42.160;24.746;2022-08-02T09:41:25;99210.03;;;33.62;28.48
11343;BME280;5726;42.160;24.746;2022-08-02T09:43:52;99206.91;;;33.35;27.80
11343;BME280;5726;42.160;24.746;2022-08-02T09:48:54;99211.94;;;33.03;28.26
11343;BME280;5726;42.160;24.746;2022-08-02T09:51:34;99205.13;;;33.41;28.61
11343;BME280;5726;42.160;24.746;2022-08-02T09:54:08;99209.03;;;33.56;28.40
11343;BME280;5726;42.160;24.746;2022-08-02T09:56:50;99217.06;;;33.30;28.58
11343;BME280;5726;42.160;24.746;2022-08-02T09:59:17;99202.69;;;33.43;28.32
11343;BME280;5726;42.160;24.746;2022-08-02T10:01:44;99203.81;;;33.09;27.95
11343;BME280;5726;42.160;24.746;2022-08-02T10:04:11;99199.94;;;33.06;28.52
11343;BME280;5726;42.160;24.746;2022-08-02T10:06:38;99195.69;;;32.89;28.86
11343;BME280;5726;42.160;24.746;2022-08-02T10:09:08;99201.72;;;33.00;29.14
11343;BME280;5726;42.160;24.746;2022-08-02T10:11:34;99212.47;;;33.35;28.75
11343;BME280;5726;42.160;24.746;2022-08-02T10:14:04;99196.03;;;33.29;27.71
11343;BME280;5726;42.160;24.746;2022-08-02T10:16:32;99198.81;;;33.29;28.34
11343;BME280;5726;42.160;24.746;2022-08-02T10:18:58;99188.94;;;33.28;28.46
11343;BME280;5726;42.160;24.746;2022-08-02T10:24:09;99199.06;;;32.97;29.28
11343;BME280;5726;42.160;24.746;2022-08-02T10:26:38;99204.28;;;32.95;29.00
11343;BME280;5726;42.160;24.746;2022-08-02T10:29:03;99189.56;;;32.82;30.07
11343;BME280;5726;42.160;24.746;2022-08-02T10:31:37;99198.09;;;32.50;29.56
11343;BME280;5726;42.160;24.746;2022-08-02T10:34:07;99197.41;;;32.59;29.77
11343;BME280;5726;42.160;24.746;2022-08-02T10:36:36;99196.66;;;32.58;28.97
11343;BME280;5726;42.160;24.746;2022-08-02T10:39:04;99194.88;;;32.64;29.48
11343;BME280;5726;42.160;24.746;2022-08-02T10:41:44;99201.25;;;32.77;29.52
11343;BME280;5726;42.160;24.746;2022-08-02T10:46:45;99192.56;;;32.87;29.26
11343;BME280;5726;42.160;24.746;2022-08-02T10:49:13;99196.69;;;32.83;29.17
11343;BME280;5726;42.160;24.746;2022-08-02T10:54:24;99189.03;;;33.12;29.23
11343;BME280;5726;42.160;24.746;2022-08-02T10:56:52;99191.13;;;33.33;28.51
11343;BME280;5726;42.160;24.746;2022-08-02T10:59:30;99184.59;;;33.14;29.01
11343;BME280;5726;42.160;24.746;2022-08-02T11:01:58;99181.81;;;33.02;28.83
11343;BME280;5726;42.160;24.746;2022-08-02T11:07:09;99177.72;;;32.94;29.13
11343;BME280;5726;42.160;24.746;2022-08-02T11:09:35;99172.69;;;33.14;29.44
11343;BME280;5726;42.160;24.746;2022-08-02T11:12:09;99173.31;;;33.42;28.99
11343;BME280;5726;42.160;24.746;2022-08-02T11:14:37;99171.75;;;33.41;29.18
11343;BME280;5726;42.160;24.746;2022-08-02T11:19:31;99164.22;;;33.30;28.33
11343;BME280;5726;42.160;24.746;2022-08-02T11:22:06;99160.81;;;33.13;28.03
11343;BME280;5726;42.160;24.746;2022-08-02T11:24:33;99162.22;;;32.93;28.35
11343;BME280;5726;42.160;24.746;2022-08-02T11:27:00;99158.94;;;32.98;28.12
11343;BME280;5726;42.160;24.746;2022-08-02T11:29:45;99151.66;;;32.88;28.55
11343;BME280;5726;42.160;24.746;2022-08-02T11:32:17;99164.69;;;32.79;28.31
11343;BME280;5726;42.160;24.746;2022-08-02T11:34:44;99141.78;;;33.12;28.60
11343;BME280;5726;42.160;24.746;2022-08-02T11:37:10;99142.88;;;33.27;28.27
11343;BME280;5726;42.160;24.746;2022-08-02T11:39:37;99146.69;;;33.20;28.53
11343;BME280;5726;42.160;24.746;2022-08-02T11:42:02;99145.13;;;33.19;28.12
11343;BME280;5726;42.160;24.746;2022-08-02T11:44:29;99146.69;;;33.08;29.06
11343;BME280;5726;42.160;24.746;2022-08-02T11:47:03;99147.63;;;33.38;28.02
11343;BME280;5726;42.160;24.746;2022-08-02T11:49:28;99146.97;;;33.34;28.47
11343;BME280;5726;42.160;24.746;2022-08-02T11:54:28;99145.97;;;33.41;27.77
11343;BME280;5726;42.160;24.746;2022-08-02T11:59:39;99150.44;;;33.14;27.72
11343;BME280;5726;42.160;24.746;2022-08-02T12:02:06;99152.69;;;33.19;28.07
11343;BME280;5726;42.160;24.746;2022-08-02T12:04:32;99144.88;;;33.26;28.49
11343;BME280;5726;42.160;24.746;2022-08-02T12:06:59;99143.09;;;33.32;27.83
11343;BME280;5726;42.160;24.746;2022-08-02T12:09:27;99155.66;;;33.49;27.43
11343;BME280;5726;42.160;24.746;2022-08-02T12:11:53;99151.97;;;33.52;27.75
11343;BME280;5726;42.160;24.746;2022-08-02T12:14:20;99143.38;;;33.59;27.14
11343;BME280;5726;42.160;24.746;2022-08-02T12:16:46;99143.31;;;33.50;27.18
11343;BME280;5726;42.160;24.746;2022-08-02T12:19:31;99138.06;;;33.52;28.15
11343;BME280;5726;42.160;24.746;2022-08-02T12:22:23;99135.22;;;33.64;28.07
11343;BME280;5726;42.160;24.746;2022-08-02T12:24:51;99127.97;;;33.45;27.48
11343;BME280;5726;42.160;24.746;2022-08-02T12:27:45;99130.78;;;33.67;27.51
11343;BME280;5726;42.160;24.746;2022-08-02T12:30:12;99134.09;;;33.74;27.64
11343;BME280;5726;42.160;24.746;2022-08-02T12:32:39;99127.94;;;33.79;27.43
11343;BME280;5726;42.160;24.746;2022-08-02T12:35:06;99138.16;;;33.94;27.93
11343;BME280;5726;42.160;24.746;2022-08-02T12:37:33;99135.13;;;33.89;27.54
11343;BME280;5726;42.160;24.746;2022-08-02T12:40:16;99134.47;;;33.85;27.69
11343;BME280;5726;42.160;24.746;2022-08-02T12:42:47;99142.03;;;33.97;27.39
11343;BME280;5726;42.160;24.746;2022-08-02T12:45:13;99130.09;;;34.18;27.19
11343;BME280;5726;42.160;24.746;2022-08-02T12:47:52;99134.66;;;34.24;27.05
11343;BME280;5726;42.160;24.746;2022-08-02T12:50:26;99128.75;;;34.01;26.83
11343;BME280;5726;42.160;24.746;2022-08-02T12:53:12;99125.06;;;34.04;26.76
11343;BME280;5726;42.160;24.746;2022-08-02T12:55:50;99125.06;;;33.83;26.98
11343;BME280;5726;42.160;24.746;2022-08-02T12:58:16;99133.59;;;33.42;27.33
11343;BME280;5726;42.160;24.746;2022-08-02T13:00:41;99126.03;;;33.55;27.28
11343;BME280;5726;42.160;24.746;2022-08-02T13:03:08;99127.53;;;33.68;27.93
11343;BME280;5726;42.160;24.746;2022-08-02T13:05:35;99123.13;;;33.58;27.30
11343;BME280;5726;42.160;24.746;2022-08-02T13:08:02;99125.38;;;33.51;28.27
11343;BME280;5726;42.160;24.746;2022-08-02T13:10:28;99125.38;;;33.38;28.32
11343;BME280;5726;42.160;24.746;2022-08-02T13:12:55;99125.66;;;33.19;27.77
11343;BME280;5726;42.160;24.746;2022-08-02T13:15:21;99122.06;;;33.31;28.38
11343;BME280;5726;42.160;24.746;2022-08-02T13:17:46;99120.31;;;33.25;28.24
11343;BME280;5726;42.160;24.746;2022-08-02T13:20:13;99119.84;;;33.38;27.78
11343;BME280;5726;42.160;24.746;2022-08-02T13:22:39;99127.03;;;33.61;27.54
11343;BME280;5726;42.160;24.746;2022-08-02T13:25:06;99112.88;;;33.68;27.17
11343;BME280;5726;42.160;24.746;2022-08-02T13:27:31;99118.22;;;33.62;27.93
11343;BME280;5726;42.160;24.746;2022-08-02T13:29:58;99126.44;;;33.66;28.41
11343;BME280;5726;42.160;24.746;2022-08-02T13:32:24;99125.44;;;33.72;27.67
11343;BME280;5726;42.160;24.746;2022-08-02T13:34:50;99124.78;;;33.89;27.65
11343;BME280;5726;42.160;24.746;2022-08-02T13:37:16;99125.66;;;33.99;27.39
11343;BME280;5726;42.160;24.746;2022-08-02T13:39:42;99115.56;;;33.92;27.13
11343;BME280;5726;42.160;24.746;2022-08-02T13:42:07;99121.91;;;33.93;28.14
11343;BME280;5726;42.160;24.746;2022-08-02T13:44:33;99121.75;;;34.18;27.60
11343;BME280;5726;42.160;24.746;2022-08-02T13:47:00;99120.28;;;34.26;27.56
11343;BME280;5726;42.160;24.746;2022-08-02T13:49:25;99117.94;;;34.24;27.42